Terminal Aerodrome Forecast
Issued by NWS Wichita, KS

Home | Current Version | Previous Version | Graphics & Text | Print | Product List | Glossary On
Versions: 1 2 3 4 5 6 7 8 9 10 11 12 13 14 15 16
000
FTUS43 KICT 301733
TAFICT
TAF
KICT 301733Z 3018/3118 35014G21KT P6SM BKN020
     FM302100 36013KT P6SM SCT020 BKN035
     FM310100 02007KT P6SM SCT020
     FM310900 01005KT 5SM BR SCT007 BKN020
     FM311600 05007KT P6SM SCT020 BKN035=

USA.gov is the U.S. government's official web portal to all federal, state and local government web resources and services.